Terminal Aerodrome Forecast
Issued by NWS

Home | Current Version | Previous Version | Text Only | Print | Product List | Glossary On
Versions: 1 2 3 4 5 6 7 8 9 10 11 12 13
000
FTUS46 KOTX 271120
TAFPUW
TAF
KPUW 271120Z 2712/2812 VRB03KT P6SM SKC
     FM271500 11005KT P6SM FEW250
     FM271900 31005KT P6SM FEW060 FEW250
     FM280400 VRB02KT P6SM SKC=

USA.gov is the U.S. government's official web portal to all federal, state and local government web resources and services.